Time;durP1;ratioP1;P1;durP2;ratioP2;P2;SDS_P1;SDS_P2;PMS_P1;PMS_P2;Temp;Humidity;BMP_temperature;BMP_pressure;BME280_temperature;BME280_humidity;BME280_pressure;Samples;Min_cycle;Max_cycle;Signal;HPM_P1;HPM_P2
2022/08/30 00:02:54;;;;;;;19.43;12.37;;;21.70;99.90;;;;;;4989018;28;20203;-70
2022/08/30 00:05:21;;;;;;;18.47;12.70;;;21.70;99.90;;;;;;4983850;28;20306;-70
2022/08/30 00:07:49;;;;;;;18.90;13.27;;;21.70;99.90;;;;;;4988670;28;20320;-70
2022/08/30 00:10:15;;;;;;;20.00;13.00;;;21.60;99.90;;;;;;4988957;28;20204;-70
2022/08/30 00:12:43;;;;;;;18.60;12.43;;;21.60;99.90;;;;;;4989602;28;20298;-70
2022/08/30 00:15:13;;;;;;;18.30;12.40;;;21.60;99.90;;;;;;4988040;28;20217;-69
2022/08/30 00:17:40;;;;;;;18.27;13.13;;;21.50;99.90;;;;;;4989155;28;20236;-69
2022/08/30 00:20:12;;;;;;;20.30;12.77;;;21.50;99.90;;;;;;4988800;28;20653;-69
2022/08/30 00:22:39;;;;;;;20.30;12.87;;;21.50;99.90;;;;;;4989179;28;20274;-70
2022/08/30 00:25:07;;;;;;;16.83;12.50;;;21.50;99.90;;;;;;4987845;28;20583;-69
2022/08/30 00:27:34;;;;;;;20.57;13.30;;;21.50;99.90;;;;;;4989049;28;20626;-70
2022/08/30 00:30:01;;;;;;;20.30;13.17;;;21.50;99.90;;;;;;4988611;28;20210;-69
2022/08/30 00:32:28;;;;;;;18.60;13.10;;;21.50;99.90;;;;;;4988738;28;20301;-70
2022/08/30 00:34:55;;;;;;;17.57;12.13;;;21.40;99.90;;;;;;4987477;28;20223;-69
2022/08/30 00:37:24;;;;;;;17.93;12.43;;;21.40;99.90;;;;;;4989010;28;20233;-69
2022/08/30 00:39:51;;;;;;;17.20;12.40;;;21.40;99.90;;;;;;4984252;28;20595;-69
2022/08/30 00:42:20;;;;;;;19.30;13.23;;;21.40;99.90;;;;;;4987603;28;20204;-70
2022/08/30 00:44:48;;;;;;;18.10;11.90;;;21.40;99.90;;;;;;4992065;28;20769;-69
2022/08/30 00:47:15;;;;;;;18.10;12.43;;;21.40;99.90;;;;;;4991667;28;20318;-69
2022/08/30 00:49:45;;;;;;;17.27;12.00;;;21.40;99.90;;;;;;4990254;28;20211;-69
2022/08/30 00:52:12;;;;;;;18.53;12.43;;;21.40;99.90;;;;;;4991397;28;20277;-69
2022/08/30 00:54:44;;;;;;;21.10;13.03;;;21.40;99.90;;;;;;4991343;28;20218;-69
2022/08/30 00:57:12;;;;;;;15.97;11.77;;;21.30;99.90;;;;;;4990170;28;20724;-68
2022/08/30 00:59:39;;;;;;;18.83;12.30;;;21.30;99.90;;;;;;4991526;28;20207;-69
2022/08/30 01:02:07;;;;;;;19.57;13.10;;;21.30;99.90;;;;;;4990971;28;20754;-69
2022/08/30 01:04:35;;;;;;;20.77;12.83;;;21.30;99.90;;;;;;4991417;28;20631;-68
2022/08/30 01:07:02;;;;;;;21.13;12.67;;;21.30;99.90;;;;;;4991235;28;20741;-68
2022/08/30 01:09:29;;;;;;;19.40;12.97;;;21.20;99.90;;;;;;4991717;28;20233;-69
2022/08/30 01:11:57;;;;;;;16.57;12.63;;;21.20;99.90;;;;;;4991171;28;20223;-70
2022/08/30 01:14:25;;;;;;;16.13;12.33;;;21.20;99.90;;;;;;4990490;28;20301;-70
2022/08/30 01:16:55;;;;;;;18.00;12.27;;;21.10;99.90;;;;;;4991050;28;20276;-69
2022/08/30 01:19:31;;;;;;;18.27;11.83;;;21.10;99.90;;;;;;4991467;28;20744;-70
2022/08/30 01:22:04;;;;;;;18.00;12.97;;;21.10;99.90;;;;;;4991046;28;20194;-69
2022/08/30 01:24:33;;;;;;;19.00;12.60;;;21.20;99.90;;;;;;4986584;28;20203;-68
2022/08/30 01:27:00;;;;;;;16.30;12.57;;;21.10;99.90;;;;;;4990986;28;20237;-69
2022/08/30 01:29:28;;;;;;;19.10;12.57;;;21.10;99.90;;;;;;4991496;28;20295;-70
2022/08/30 01:31:55;;;;;;;18.17;12.77;;;21.10;99.90;;;;;;4990076;28;20337;-69
2022/08/30 01:34:21;;;;;;;18.43;13.27;;;21.10;99.90;;;;;;4971697;28;20263;-68
2022/08/30 01:36:49;;;;;;;21.27;13.23;;;21.10;99.90;;;;;;4971606;28;20259;-69
2022/08/30 01:39:17;;;;;;;19.23;12.53;;;21.10;99.90;;;;;;4971492;28;20211;-71
2022/08/30 01:41:46;;;;;;;23.77;13.57;;;21.00;99.90;;;;;;4971466;28;20547;-69
2022/08/30 01:44:14;;;;;;;15.77;11.87;;;21.00;99.90;;;;;;4984919;28;20292;-68
2022/08/30 01:46:44;;;;;;;19.17;13.30;;;21.00;99.90;;;;;;4990611;28;20842;-69
2022/08/30 01:49:14;;;;;;;18.90;13.60;;;21.00;99.90;;;;;;4991312;28;20625;-69
2022/08/30 01:51:41;;;;;;;17.20;12.60;;;21.00;99.90;;;;;;4989671;28;20301;-67
2022/08/30 01:54:08;;;;;;;18.40;13.03;;;20.90;99.90;;;;;;4989762;28;20298;-71
2022/08/30 01:56:35;;;;;;;19.03;14.10;;;20.90;99.90;;;;;;4990604;28;20302;-68
2022/08/30 01:59:04;;;;;;;17.47;12.87;;;20.90;99.90;;;;;;4990781;28;20654;-68
2022/08/30 02:01:34;;;;;;;16.10;12.57;;;20.90;99.90;;;;;;4986182;28;20297;-68
2022/08/30 02:04:01;;;;;;;16.93;13.00;;;20.80;99.90;;;;;;4986420;28;20211;-69
2022/08/30 02:06:28;;;;;;;17.53;13.33;;;20.80;99.90;;;;;;4990500;28;20290;-68
2022/08/30 02:08:55;;;;;;;18.17;12.80;;;20.80;99.90;;;;;;4990640;28;20633;-69
2022/08/30 02:11:22;;;;;;;20.23;13.60;;;20.80;99.90;;;;;;4989082;28;20212;-69
2022/08/30 02:13:49;;;;;;;18.07;13.80;;;20.80;99.90;;;;;;4990631;28;20305;-70
2022/08/30 02:16:21;;;;;;;18.87;13.17;;;20.70;99.90;;;;;;4990645;28;20619;-69
2022/08/30 02:18:49;;;;;;;21.37;14.53;;;20.70;99.90;;;;;;4990129;28;20218;-69
2022/08/30 02:21:16;;;;;;;18.83;13.90;;;20.70;99.90;;;;;;4989922;28;20214;-68
2022/08/30 02:23:43;;;;;;;18.60;13.00;;;20.60;99.90;;;;;;4990542;28;20204;-70
2022/08/30 02:26:10;;;;;;;18.63;13.30;;;20.60;99.90;;;;;;4989731;28;20300;-70
2022/08/30 02:28:38;;;;;;;21.47;14.23;;;20.60;99.90;;;;;;4990475;28;20213;-67
2022/08/30 02:31:04;;;;;;;25.57;16.17;;;20.60;99.90;;;;;;4989242;28;20286;-70
2022/08/30 02:33:33;;;;;;;19.70;14.73;;;20.50;99.90;;;;;;4990321;28;20263;-70
2022/08/30 02:36:00;;;;;;;22.53;14.90;;;20.50;99.90;;;;;;4990227;28;20268;-69
2022/08/30 02:38:27;;;;;;;21.20;15.33;;;20.50;99.90;;;;;;4990110;28;20261;-69
2022/08/30 02:40:53;;;;;;;20.13;14.43;;;20.40;99.90;;;;;;4987172;28;20627;-69
2022/08/30 02:43:20;;;;;;;21.07;15.00;;;20.40;99.90;;;;;;4985846;28;20203;-70
2022/08/30 02:45:47;;;;;;;19.80;14.17;;;20.40;99.90;;;;;;4989687;28;20305;-68
2022/08/30 02:48:15;;;;;;;20.13;14.73;;;20.40;99.90;;;;;;4990007;28;20330;-69
2022/08/30 02:50:45;;;;;;;19.97;15.00;;;20.40;99.90;;;;;;4987070;28;20208;-69
2022/08/30 02:53:13;;;;;;;21.23;14.57;;;20.40;99.90;;;;;;4987718;28;20560;-70
2022/08/30 02:55:40;;;;;;;17.87;13.60;;;20.30;99.90;;;;;;4989599;28;20208;-69
2022/08/30 02:58:07;;;;;;;23.63;14.37;;;20.30;99.90;;;;;;4990087;28;20815;-68
2022/08/30 03:00:35;;;;;;;20.40;14.43;;;20.30;99.90;;;;;;4989252;28;20272;-70
2022/08/30 03:03:02;;;;;;;19.57;14.37;;;20.30;99.90;;;;;;4989573;28;20645;-70
2022/08/30 03:05:29;;;;;;;20.70;15.03;;;20.30;99.90;;;;;;4989809;28;20241;-69
2022/08/30 03:07:58;;;;;;;18.30;14.60;;;20.30;99.90;;;;;;4989865;28;20246;-69
2022/08/30 03:10:26;;;;;;;23.40;16.27;;;20.30;99.90;;;;;;4989916;28;20209;-69
2022/08/30 03:12:53;;;;;;;21.10;14.40;;;20.30;99.90;;;;;;4988490;28;20215;-69
2022/08/30 03:15:24;;;;;;;23.77;15.40;;;20.20;99.90;;;;;;4989833;28;20623;-68
2022/08/30 03:17:51;;;;;;;20.70;15.23;;;20.20;99.90;;;;;;4989352;28;20227;-70
2022/08/30 03:20:19;;;;;;;21.07;15.93;;;20.20;99.90;;;;;;4987232;28;20218;-70
2022/08/30 03:22:46;;;;;;;23.03;16.27;;;20.20;99.90;;;;;;4989018;28;20215;-71
2022/08/30 03:25:15;;;;;;;23.27;16.77;;;20.20;99.90;;;;;;4989650;28;20298;-70
2022/08/30 03:27:42;;;;;;;21.07;16.23;;;20.20;99.90;;;;;;4989415;28;20286;-70
2022/08/30 03:30:11;;;;;;;21.27;16.83;;;20.10;99.90;;;;;;4987542;28;20724;-69
2022/08/30 03:32:38;;;;;;;23.20;16.93;;;20.10;99.90;;;;;;4988898;28;20228;-69
2022/08/30 03:35:06;;;;;;;25.83;17.10;;;20.10;99.90;;;;;;4989413;28;20205;-69
2022/08/30 03:37:33;;;;;;;21.53;16.23;;;20.10;99.90;;;;;;4988131;28;20282;-70
2022/08/30 03:40:00;;;;;;;25.53;16.80;;;20.10;99.90;;;;;;4987290;28;20262;-69
2022/08/30 03:42:28;;;;;;;22.00;16.90;;;20.10;99.90;;;;;;4989705;28;20234;-70
2022/08/30 03:44:55;;;;;;;24.57;17.70;;;20.10;99.90;;;;;;4989933;28;20298;-70
2022/08/30 03:47:22;;;;;;;25.57;18.00;;;20.10;99.90;;;;;;4989166;28;20232;-69
2022/08/30 03:49:49;;;;;;;23.37;16.70;;;20.10;99.90;;;;;;4988330;28;20294;-70
2022/08/30 03:52:16;;;;;;;26.80;17.27;;;20.10;99.90;;;;;;4989360;28;20304;-70
2022/08/30 03:54:43;;;;;;;21.97;16.80;;;20.10;99.90;;;;;;4989023;28;20217;-69
2022/08/30 03:57:10;;;;;;;21.73;16.20;;;20.10;99.90;;;;;;4986712;28;20303;-69
2022/08/30 03:59:38;;;;;;;25.07;16.73;;;20.10;99.90;;;;;;4988815;28;20294;-69
2022/08/30 04:02:05;;;;;;;23.17;15.73;;;20.10;99.90;;;;;;4987954;28;20295;-69
2022/08/30 04:04:32;;;;;;;23.87;17.27;;;20.10;99.90;;;;;;4988244;28;20260;-68
2022/08/30 04:06:59;;;;;;;20.70;16.27;;;20.10;99.90;;;;;;4985943;28;20249;-68
2022/08/30 04:09:26;;;;;;;21.30;16.33;;;20.10;99.90;;;;;;4987392;28;20227;-68
2022/08/30 04:11:53;;;;;;;22.40;16.37;;;20.20;99.90;;;;;;4977506;28;20223;-68
2022/08/30 04:14:22;;;;;;;21.93;16.37;;;20.20;99.90;;;;;;4978623;28;20539;-67
2022/08/30 04:16:50;;;;;;;21.40;15.57;;;20.20;99.90;;;;;;4986018;28;20209;-69
2022/08/30 04:19:17;;;;;;;21.20;14.20;;;20.20;99.90;;;;;;4990343;28;20246;-70
2022/08/30 04:21:44;;;;;;;22.47;14.43;;;20.30;99.90;;;;;;4991031;28;20253;-68
2022/08/30 04:24:11;;;;;;;18.63;14.20;;;20.30;99.90;;;;;;4980296;28;20216;-68
2022/08/30 04:26:38;;;;;;;18.13;13.83;;;20.30;99.90;;;;;;4990326;28;20211;-69
2022/08/30 04:29:05;;;;;;;18.10;14.47;;;20.40;99.90;;;;;;4989121;28;20842;-69
2022/08/30 04:31:32;;;;;;;19.83;13.67;;;20.40;99.90;;;;;;4979915;28;20299;-69
2022/08/30 04:34:00;;;;;;;16.93;13.23;;;20.40;99.90;;;;;;4987641;28;20199;-68
2022/08/30 04:36:27;;;;;;;19.50;14.17;;;20.40;99.90;;;;;;4979162;28;20282;-68
2022/08/30 04:38:54;;;;;;;17.87;13.03;;;20.50;99.90;;;;;;4983716;28;20219;-68
2022/08/30 04:41:23;;;;;;;15.47;12.13;;;20.50;99.90;;;;;;4991245;28;20217;-69
2022/08/30 04:43:50;;;;;;;16.07;12.90;;;20.60;99.90;;;;;;4992069;28;20273;-71
2022/08/30 04:46:18;;;;;;;15.43;11.83;;;20.60;99.90;;;;;;4988741;28;20206;-69
2022/08/30 04:48:46;;;;;;;16.47;12.23;;;20.60;99.90;;;;;;4990836;28;20208;-70
2022/08/30 04:51:17;;;;;;;15.90;11.20;;;20.70;99.90;;;;;;4985804;28;20217;-68
2022/08/30 04:53:44;;;;;;;16.20;11.97;;;20.70;99.90;;;;;;4985388;28;20575;-69
2022/08/30 04:56:15;;;;;;;14.23;11.50;;;20.70;99.90;;;;;;4989260;28;20295;-69
2022/08/30 04:58:43;;;;;;;16.40;12.03;;;20.80;99.90;;;;;;4991637;28;20305;-68
2022/08/30 05:01:13;;;;;;;15.20;11.33;;;20.80;99.90;;;;;;4990389;28;20203;-68
2022/08/30 05:03:40;;;;;;;14.57;10.23;;;20.90;99.90;;;;;;4992189;28;20192;-68
2022/08/30 05:06:07;;;;;;;13.53;9.67;;;20.90;99.90;;;;;;4991504;28;20260;-69
2022/08/30 05:08:35;;;;;;;13.03;9.53;;;21.00;99.90;;;;;;4991073;28;20293;-69
2022/08/30 05:11:05;;;;;;;14.13;9.90;;;21.00;99.90;;;;;;4991523;28;20295;-67
2022/08/30 05:13:32;;;;;;;13.60;9.87;;;21.00;99.90;;;;;;4991447;28;20266;-69
2022/08/30 05:16:00;;;;;;;10.80;9.27;;;21.00;99.90;;;;;;4991258;28;20239;-69
2022/08/30 05:18:27;;;;;;;10.93;8.63;;;21.10;99.90;;;;;;4989385;28;20731;-69
2022/08/30 05:21:04;;;;;;;11.00;8.80;;;21.10;99.90;;;;;;4988481;28;20253;-69
2022/08/30 05:23:30;;;;;;;11.50;8.60;;;21.20;99.90;;;;;;4990074;28;20236;-68
2022/08/30 05:25:59;;;;;;;13.20;9.13;;;21.20;99.90;;;;;;4991103;28;20254;-71
2022/08/30 05:28:26;;;;;;;12.70;8.77;;;21.30;99.90;;;;;;4987272;28;20223;-72
2022/08/30 05:30:53;;;;;;;11.33;7.77;;;21.30;99.90;;;;;;4990304;28;20238;-71
2022/08/30 05:33:19;;;;;;;10.60;7.80;;;21.40;99.90;;;;;;4990007;28;20311;-72
2022/08/30 05:35:46;;;;;;;10.67;8.10;;;21.50;99.90;;;;;;4988353;28;20653;-71
2022/08/30 05:38:13;;;;;;;9.17;7.30;;;21.50;99.90;;;;;;4987974;28;20306;-71
2022/08/30 05:40:41;;;;;;;10.60;7.27;;;21.60;99.90;;;;;;4989215;28;20207;-70
2022/08/30 05:43:10;;;;;;;8.90;7.47;;;21.60;99.90;;;;;;4986160;28;20208;-71
2022/08/30 05:45:37;;;;;;;10.00;7.60;;;21.70;99.90;;;;;;4980196;28;20203;-70
2022/08/30 05:48:04;;;;;;;10.57;7.17;;;21.70;99.90;;;;;;4981054;28;20235;-70
2022/08/30 05:50:31;;;;;;;9.43;7.83;;;21.80;99.90;;;;;;4979813;28;21806;-70
2022/08/30 05:52:58;;;;;;;8.87;7.40;;;21.80;99.90;;;;;;4990907;28;20215;-71
2022/08/30 05:55:25;;;;;;;8.63;7.23;;;21.90;99.90;;;;;;4991054;28;20311;-72
2022/08/30 05:57:53;;;;;;;8.83;7.13;;;21.90;99.90;;;;;;4990851;28;20210;-71
2022/08/30 06:00:22;;;;;;;9.13;7.07;;;22.00;99.90;;;;;;4988635;28;20215;-70
2022/08/30 06:02:53;;;;;;;8.60;6.80;;;22.00;99.90;;;;;;4990158;28;20212;-73
2022/08/30 06:05:20;;;;;;;7.43;6.13;;;22.10;99.90;;;;;;4990493;28;20198;-72
2022/08/30 06:07:48;;;;;;;7.30;6.03;;;22.10;99.90;;;;;;4990892;28;20314;-72
2022/08/30 06:10:15;;;;;;;8.70;6.60;;;22.20;99.90;;;;;;4989862;28;20240;-72
2022/08/30 06:12:42;;;;;;;9.93;6.90;;;22.30;99.90;;;;;;4991092;28;20705;-71
2022/08/30 06:15:09;;;;;;;9.80;6.77;;;22.30;99.90;;;;;;4990497;28;20260;-72
2022/08/30 06:17:38;;;;;;;7.87;5.97;;;22.30;99.90;;;;;;4990908;28;20304;-72
2022/08/30 06:20:06;;;;;;;9.07;6.03;;;22.40;99.90;;;;;;4988984;28;20311;-71
2022/08/30 06:22:33;;;;;;;8.47;6.13;;;22.40;99.90;;;;;;4990798;28;20290;-73
2022/08/30 06:25:00;;;;;;;8.70;6.00;;;22.40;99.90;;;;;;4990748;28;20235;-72
2022/08/30 06:27:27;;;;;;;8.30;5.73;;;22.50;99.90;;;;;;4990662;28;20616;-72
2022/08/30 06:29:54;;;;;;;9.67;5.70;;;22.60;99.90;;;;;;4989995;28;20205;-71
2022/08/30 06:32:21;;;;;;;6.67;4.97;;;22.60;99.90;;;;;;4989982;28;20269;-72
2022/08/30 06:34:50;;;;;;;6.57;4.50;;;22.60;99.90;;;;;;4990596;28;20674;-71
2022/08/30 06:37:16;;;;;;;5.30;4.33;;;22.60;99.90;;;;;;4989571;28;20218;-72
2022/08/30 06:39:43;;;;;;;9.97;5.10;;;22.60;99.90;;;;;;4988537;28;20309;-71
2022/08/30 06:42:10;;;;;;;6.40;4.73;;;22.70;99.90;;;;;;4990382;28;20246;-72
2022/08/30 06:44:38;;;;;;;6.70;4.50;;;22.70;99.90;;;;;;4990420;28;20254;-72
2022/08/30 06:47:05;;;;;;;9.90;5.13;;;22.70;99.90;;;;;;4989687;28;20672;-73
2022/08/30 06:49:32;;;;;;;7.47;4.90;;;22.70;99.90;;;;;;4989988;28;20206;-71
2022/08/30 06:52:00;;;;;;;7.70;4.80;;;22.70;99.90;;;;;;4990009;28;20205;-71
2022/08/30 06:54:27;;;;;;;6.50;4.93;;;22.70;99.90;;;;;;4990158;28;20216;-72
2022/08/30 06:56:54;;;;;;;5.70;4.07;;;22.70;99.90;;;;;;4988564;28;20235;-74
2022/08/30 06:59:21;;;;;;;6.30;4.37;;;22.80;99.90;;;;;;4989754;28;20279;-73
2022/08/30 07:01:48;;;;;;;7.17;4.30;;;22.80;99.90;;;;;;4990062;28;20294;-72
2022/08/30 07:04:15;;;;;;;5.10;4.37;;;22.90;99.90;;;;;;4989950;28;20572;-73
2022/08/30 07:06:41;;;;;;;5.53;3.97;;;23.00;99.90;;;;;;4989619;28;20211;-73
2022/08/30 07:09:10;;;;;;;6.53;4.00;;;23.00;99.90;;;;;;4989846;28;20257;-72
2022/08/30 07:11:39;;;;;;;7.37;4.33;;;23.10;99.90;;;;;;4988366;28;20239;-74
2022/08/30 07:14:06;;;;;;;7.70;4.17;;;23.10;99.90;;;;;;4989489;28;20212;-71
2022/08/30 07:16:34;;;;;;;5.73;3.93;;;23.10;99.90;;;;;;4989720;28;20217;-71
2022/08/30 07:19:01;;;;;;;5.10;3.57;;;23.10;99.90;;;;;;4989704;28;20316;-72
2022/08/30 07:21:32;;;;;;;7.00;4.27;;;23.20;99.90;;;;;;4988945;28;20668;-72
2022/08/30 07:24:00;;;;;;;6.23;3.80;;;23.20;99.90;;;;;;4987265;28;20304;-71
2022/08/30 07:26:32;;;;;;;6.07;3.70;;;23.20;99.90;;;;;;4985005;28;20218;-73
2022/08/30 07:29:00;;;;;;;6.73;3.60;;;23.30;99.90;;;;;;4985557;28;20240;-73
2022/08/30 07:31:28;;;;;;;5.77;3.80;;;23.30;99.90;;;;;;4988776;28;20257;-72
2022/08/30 07:33:55;;;;;;;6.00;3.60;;;23.40;99.90;;;;;;4989550;28;20209;-72
2022/08/30 07:36:23;;;;;;;6.23;3.80;;;23.40;99.90;;;;;;4989938;28;20619;-71
2022/08/30 07:38:51;;;;;;;8.63;4.20;;;23.50;99.90;;;;;;4986307;28;20298;-72
2022/08/30 07:41:20;;;;;;;7.43;3.67;;;23.50;99.90;;;;;;4988811;28;20300;-72
2022/08/30 07:43:49;;;;;;;6.57;3.87;;;23.50;99.90;;;;;;4989737;28;20291;-73
2022/08/30 07:46:16;;;;;;;6.60;3.50;;;23.50;99.90;;;;;;4989179;28;20210;-72
2022/08/30 07:48:43;;;;;;;6.50;3.53;;;23.60;99.90;;;;;;4986068;28;20237;-71
2022/08/30 07:51:12;;;;;;;8.60;3.77;;;23.60;99.90;;;;;;4986101;28;20668;-72
2022/08/30 07:53:39;;;;;;;5.20;3.67;;;23.70;99.90;;;;;;4991000;28;20878;-72
2022/08/30 07:56:07;;;;;;;5.83;3.87;;;23.70;99.90;;;;;;4992419;28;20262;-72
2022/08/30 07:58:36;;;;;;;7.73;3.70;;;23.70;99.90;;;;;;4991803;28;20205;-73
2022/08/30 08:01:05;;;;;;;7.17;3.70;;;23.80;99.90;;;;;;4992710;28;20665;-71
2022/08/30 08:03:32;;;;;;;11.03;3.70;;;23.80;99.90;;;;;;4992941;28;20234;-72
2022/08/30 08:06:01;;;;;;;5.27;3.50;;;23.80;99.90;;;;;;4989812;28;20593;-74
2022/08/30 08:08:29;;;;;;;7.40;3.57;;;23.90;99.90;;;;;;4992592;28;20215;-72
2022/08/30 08:10:55;;;;;;;5.80;3.67;;;23.90;99.90;;;;;;4992669;28;20783;-72
2022/08/30 08:13:23;;;;;;;6.30;3.67;;;23.90;99.90;;;;;;4992923;28;20206;-72
2022/08/30 08:15:50;;;;;;;5.57;3.70;;;23.90;99.90;;;;;;4992144;28;20211;-74
2022/08/30 08:18:19;;;;;;;5.70;4.10;;;23.90;99.90;;;;;;4991038;28;20223;-71
2022/08/30 08:20:46;;;;;;;6.67;3.90;;;23.90;99.90;;;;;;4997058;28;20234;-72
2022/08/30 08:23:12;;;;;;;8.17;3.80;;;24.00;99.90;;;;;;4992662;28;20638;-72
2022/08/30 08:25:40;;;;;;;7.60;3.90;;;24.00;99.90;;;;;;5002306;28;20655;-73
2022/08/30 08:28:07;;;;;;;7.23;4.17;;;24.00;99.90;;;;;;4992300;28;20209;-71
2022/08/30 08:30:36;;;;;;;10.33;4.03;;;24.10;99.90;;;;;;4993266;28;20203;-71
2022/08/30 08:33:04;;;;;;;4.90;3.57;;;24.10;99.90;;;;;;5011776;28;20298;-71
2022/08/30 08:35:34;;;;;;;6.10;3.70;;;24.10;99.90;;;;;;5011767;28;20208;-69
2022/08/30 08:38:01;;;;;;;6.63;3.70;;;24.10;99.90;;;;;;5011695;28;20663;-69
2022/08/30 08:40:30;;;;;;;5.73;3.30;;;24.20;99.90;;;;;;5012036;28;20230;-69
2022/08/30 08:43:04;;;;;;;6.60;3.60;;;24.30;99.90;;;;;;4993194;28;20297;-69
2022/08/30 08:45:42;;;;;;;7.00;3.90;;;24.30;99.90;;;;;;4991045;28;20295;-70
2022/08/30 08:48:14;;;;;;;7.57;3.87;;;24.10;99.90;;;;;;4992195;28;20659;-69
2022/08/30 08:53:33;;;;;;;7.93;4.00;;;24.20;99.90;;;;;;4992586;28;20198;-70
2022/08/30 08:53:36;;;;;;;6.40;3.67;;;24.20;99.90;;;;;;4990154;28;20248;-70
2022/08/30 08:56:06;;;;;;;6.30;3.67;;;24.30;99.90;;;;;;4989103;28;20198;-70
2022/08/30 08:58:41;;;;;;;6.77;4.03;;;24.30;99.90;;;;;;4997001;28;20199;-70
2022/08/30 09:01:10;;;;;;;6.13;3.27;;;24.20;99.90;;;;;;4994377;28;20230;-71
2022/08/30 09:03:38;;;;;;;5.87;3.63;;;24.30;99.90;;;;;;4992185;28;20237;-71
2022/08/30 09:06:19;;;;;;;5.47;3.57;;;24.30;99.90;;;;;;4992681;28;20203;-70
2022/08/30 09:08:46;;;;;;;6.77;3.80;;;24.40;99.90;;;;;;4992959;28;20283;-69
2022/08/30 09:11:21;;;;;;;6.00;3.10;;;24.40;99.90;;;;;;4992162;28;20611;-70
2022/08/30 09:13:48;;;;;;;7.50;3.50;;;24.40;99.90;;;;;;4989245;28;20205;-71
2022/08/30 09:16:45;;;;;;;5.60;3.40;;;24.50;99.90;;;;;;5005810;28;20691;-71
2022/08/30 09:19:12;;;;;;;6.60;3.67;;;24.50;99.90;;;;;;5007082;28;20298;-71
2022/08/30 09:21:40;;;;;;;5.27;3.00;;;24.50;99.90;;;;;;4992657;28;20221;-72
2022/08/30 09:24:10;;;;;;;4.97;3.30;;;24.50;99.90;;;;;;5011102;28;20203;-71
2022/08/30 09:26:38;;;;;;;7.20;3.30;;;24.50;99.90;;;;;;5010837;28;20252;-72
2022/08/30 09:29:15;;;;;;;5.40;3.10;;;24.60;99.90;;;;;;4995014;28;20685;-72
2022/08/30 09:31:47;;;;;;;4.80;3.30;;;24.60;99.90;;;;;;4990451;28;20297;-72
2022/08/30 09:34:18;;;;;;;3.87;3.00;;;24.60;99.90;;;;;;4991354;28;20206;-72
2022/08/30 09:36:50;;;;;;;5.53;3.07;;;24.60;99.90;;;;;;4994543;28;20721;-72
2022/08/30 09:39:19;;;;;;;9.40;2.93;;;24.60;99.90;;;;;;4997943;28;20252;-72
2022/08/30 09:41:49;;;;;;;3.60;2.70;;;24.70;99.90;;;;;;5008208;28;22215;-72
2022/08/30 09:44:18;;;;;;;6.63;2.90;;;24.70;99.90;;;;;;4996465;28;20271;-71
2022/08/30 09:46:48;;;;;;;5.20;3.13;;;24.80;99.90;;;;;;4993419;28;20229;-72
2022/08/30 09:49:34;;;;;;;3.80;2.80;;;24.90;99.90;;;;;;4992564;28;20286;-72
2022/08/30 09:52:16;;;;;;;5.53;2.90;;;25.00;99.90;;;;;;4982156;28;20294;-72
2022/08/30 09:54:53;;;;;;;8.00;3.10;;;25.00;99.90;;;;;;4997042;28;20224;-72
2022/08/30 09:57:28;;;;;;;4.07;3.00;;;25.00;99.90;;;;;;5011481;28;20294;-72
2022/08/30 10:00:01;;;;;;;4.07;2.77;;;25.10;99.90;;;;;;5006342;28;20613;-71
2022/08/30 10:02:52;;;;;;;4.73;2.67;;;25.10;99.90;;;;;;5001897;28;20219;-72
2022/08/30 10:05:26;;;;;;;3.60;2.83;;;25.10;99.90;;;;;;4986169;28;20642;-71
2022/08/30 10:08:06;;;;;;;7.50;2.73;;;25.10;99.90;;;;;;5010338;28;20282;-71
2022/08/30 10:10:41;;;;;;;7.03;3.00;;;25.10;99.90;;;;;;5001767;28;20710;-73
2022/08/30 10:13:28;;;;;;;6.80;2.80;;;25.10;99.90;;;;;;4990428;28;20800;-73
2022/08/30 10:16:01;;;;;;;5.18;2.70;;;25.10;99.90;;;;;;4990836;28;20283;-71
2022/08/30 10:18:35;;;;;;;4.85;2.95;;;25.20;99.90;;;;;;4986666;28;20214;-73
2022/08/30 10:21:10;;;;;;;5.95;3.17;;;25.20;99.90;;;;;;4989216;28;20222;-72
2022/08/30 10:23:44;;;;;;;3.72;2.70;;;25.20;99.90;;;;;;5002821;28;20217;-73
2022/08/30 10:26:17;;;;;;;4.70;2.77;;;25.30;99.90;;;;;;4986199;28;20203;-72
2022/08/30 10:28:50;;;;;;;3.53;2.87;;;25.40;99.90;;;;;;5003854;28;20279;-70
2022/08/30 10:31:26;;;;;;;5.27;2.97;;;25.40;99.90;;;;;;5000130;28;20254;-72
2022/08/30 10:33:58;;;;;;;4.23;2.70;;;25.40;99.90;;;;;;4997663;28;20649;-73
2022/08/30 10:36:31;;;;;;;5.00;2.80;;;25.50;99.90;;;;;;4990932;28;20198;-73
2022/08/30 10:39:02;;;;;;;3.75;2.75;;;25.50;99.90;;;;;;5054689;28;20194;-73
2022/08/30 10:41:36;;;;;;;4.57;2.60;;;25.60;99.90;;;;;;4990455;28;20271;-72
2022/08/30 10:44:07;;;;;;;5.00;2.70;;;25.70;99.90;;;;;;5050248;28;20196;-72
2022/08/30 10:46:39;;;;;;;6.68;2.97;;;25.70;99.90;;;;;;5085437;28;20289;-72
2022/08/30 10:49:15;;;;;;;4.85;2.95;;;25.70;99.90;;;;;;4990520;28;20274;-74
2022/08/30 10:51:48;;;;;;;5.78;2.88;;;25.80;99.90;;;;;;4992617;28;20193;-72
2022/08/30 10:54:23;;;;;;;5.13;2.70;;;25.80;99.90;;;;;;5009707;28;20207;-72
2022/08/30 10:56:52;;;;;;;4.07;2.50;;;25.90;99.90;;;;;;4993318;28;20287;-73
2022/08/30 10:59:21;;;;;;;8.30;2.85;;;25.90;99.90;;;;;;4996057;28;20212;-72
2022/08/30 11:02:19;;;;;;;3.63;2.67;;;26.00;99.90;;;;;;5009802;28;20298;-72
2022/08/30 11:05:04;;;;;;;3.92;2.70;;;26.00;99.90;;;;;;4999051;28;20296;-72
2022/08/30 11:07:39;;;;;;;8.80;3.25;;;26.00;99.90;;;;;;4995634;28;20255;-72
2022/08/30 11:10:33;;;;;;;6.40;2.67;;;26.00;99.90;;;;;;4994808;28;20193;-72
2022/08/30 11:13:03;;;;;;;4.25;2.55;;;26.00;99.90;;;;;;5042710;28;20288;-73
2022/08/30 11:15:34;;;;;;;4.72;2.65;;;26.00;99.90;;;;;;4992467;28;20191;-73
2022/08/30 11:18:04;;;;;;;4.47;3.00;;;26.00;99.90;;;;;;5070097;28;20629;-73
2022/08/30 11:20:36;;;;;;;6.97;2.70;;;26.10;99.90;;;;;;5086786;28;20504;-72
2022/08/30 11:23:30;;;;;;;3.53;2.58;;;26.20;99.90;;;;;;4989931;28;20194;-71
2022/08/30 11:26:00;;;;;;;4.07;2.38;;;26.20;99.90;;;;;;5014652;28;20195;-72
2022/08/30 11:29:06;;;;;;;4.65;2.80;;;26.20;99.90;;;;;;5092451;28;20185;-72
2022/08/30 11:31:41;;;;;;;4.93;2.60;;;26.20;99.90;;;;;;5091811;28;20253;-73
2022/08/30 11:34:09;;;;;;;2.90;2.38;;;26.20;99.90;;;;;;5091921;28;20206;-73
2022/08/30 11:37:07;;;;;;;4.32;2.50;;;26.20;99.90;;;;;;5026600;28;20693;-74
2022/08/30 11:39:57;;;;;;;3.17;2.25;;;26.20;99.90;;;;;;4990313;28;20623;-72
2022/08/30 11:42:39;;;;;;;4.95;2.60;;;26.30;99.90;;;;;;4989802;28;20277;-73
2022/08/30 11:45:50;;;;;;;4.40;2.58;;;26.30;99.90;;;;;;4989849;28;20197;-72
2022/08/30 11:48:44;;;;;;;9.15;2.55;;;26.20;99.90;;;;;;4989613;28;20783;-71
2022/08/30 11:51:46;;;;;;;3.55;2.45;;;26.30;99.90;;;;;;4991342;28;20287;-71
2022/08/30 11:54:27;;;;;;;4.57;2.65;;;26.30;99.90;;;;;;4987005;28;20262;-72
2022/08/30 11:57:01;;;;;;;4.32;2.80;;;26.30;99.90;;;;;;4989552;28;20287;-72
2022/08/30 11:59:38;;;;;;;4.28;2.42;;;26.30;99.90;;;;;;4990309;28;20235;-70
2022/08/30 12:02:07;;;;;;;4.75;2.60;;;26.40;99.90;;;;;;4989586;28;20212;-72
2022/08/30 12:04:45;;;;;;;8.15;2.40;;;26.40;99.90;;;;;;4989312;28;20212;-71
2022/08/30 12:07:50;;;;;;;5.07;2.53;;;26.40;99.90;;;;;;4989614;28;20201;-71
2022/08/30 12:10:24;;;;;;;5.20;2.35;;;26.30;99.90;;;;;;4989244;28;20289;-71
2022/08/30 12:12:54;;;;;;;8.57;2.70;;;26.30;99.90;;;;;;4989725;28;20560;-71
2022/08/30 12:15:59;;;;;;;6.55;2.63;;;26.40;99.90;;;;;;4989591;28;20302;-72
2022/08/30 12:18:32;;;;;;;3.58;2.35;;;26.40;99.90;;;;;;4989311;28;20203;-71
2022/08/30 12:21:22;;;;;;;4.28;2.15;;;26.50;99.90;;;;;;4989407;28;20225;-74
2022/08/30 12:23:53;;;;;;;5.28;2.40;;;26.50;99.90;;;;;;4989925;28;20223;-72
2022/08/30 12:26:31;;;;;;;5.53;2.40;;;26.50;99.90;;;;;;4990561;28;20211;-73
2022/08/30 12:29:14;;;;;;;3.40;2.15;;;26.60;99.90;;;;;;4989953;28;20311;-71
2022/08/30 12:31:48;;;;;;;7.10;2.80;;;26.60;99.90;;;;;;4989721;28;20723;-72
2022/08/30 12:34:24;;;;;;;8.02;2.60;;;26.70;99.90;;;;;;4989166;28;20715;-71
2022/08/30 12:36:56;;;;;;;6.07;2.70;;;26.70;99.90;;;;;;4993020;28;20263;-70
2022/08/30 12:39:26;;;;;;;4.93;2.47;;;26.70;99.90;;;;;;4992377;28;20191;-70
2022/08/30 12:41:53;;;;;;;4.88;2.70;;;26.70;99.90;;;;;;4992505;28;20324;-70
2022/08/30 12:44:23;;;;;;;6.65;2.58;;;26.70;99.90;;;;;;4992261;28;20586;-69
2022/08/30 12:46:53;;;;;;;5.68;2.40;;;26.70;99.90;;;;;;4992301;28;20668;-71
2022/08/30 12:49:25;;;;;;;5.38;2.63;;;26.80;99.90;;;;;;4991927;28;20192;-69
2022/08/30 12:51:53;;;;;;;3.20;2.45;;;26.80;99.90;;;;;;4992320;28;20711;-70
2022/08/30 12:54:23;;;;;;;3.40;2.50;;;26.80;99.90;;;;;;4992053;28;20208;-71
2022/08/30 12:56:57;;;;;;;3.97;2.55;;;26.80;99.90;;;;;;4991980;28;20193;-70